PDT,Max TemperatureF,Mean TemperatureF,Min TemperatureF,Max Dew PointF,MeanDew PointF,Min DewpointF,Max Humidity, Mean Humidity, Min Humidity, Max Sea Level PressureIn, Mean Sea Level PressureIn, Min Sea Level PressureIn, Max VisibilityMiles, Mean VisibilityMiles, Min VisibilityMiles, Max Wind SpeedMPH, Mean Wind SpeedMPH, Max Gust SpeedMPH,PrecipitationIn, CloudCover, Events, WindDirDegrees
2012-10-1,88,67,45,40,35,30,61,37,15,30.26,30.17,30.09,10,10,10,9,3,16,0.00,0,,360
2012-10-2,85,67,48,41,35,31,54,35,15,30.12,30.04,29.96,10,10,10,9,4,16,0.00,0,,50
2012-10-3,79,63,47,41,37,32,68,41,19,30.10,30.05,29.99,10,9,2,10,3,17,0.00,0,,54
2012-10-4,81,61,40,44,35,25,77,47,15,30.15,30.11,30.06,10,10,10,7,1,12,0.00,0,,355
2012-10-5,72,56,40,45,40,36,82,60,35,30.18,30.15,30.11,10,10,2,7,1,15,0.00,0,,80
2012-10-6,74,55,35,41,35,28,89,57,19,30.17,30.10,30.04,,,,6,0,10,0.00,0,,-1
2012-10-7,77,57,37,40,35,27,85,54,16,30.12,30.04,29.96,,,,7,1,13,0.00,0,,-1
2012-10-8,70,55,39,47,40,36,86,65,33,30.07,30.04,30.01,,,,6,1,14,0.00,0,,-1
2012-10-9,70,53,36,44,39,33,92,66,35,30.13,30.06,30.01,,,,6,0,10,0.00,0,,-1
2012-10-10,77,59,41,40,36,31,76,52,21,30.05,29.98,29.90,,,,8,1,13,0.00,0,,34
2012-10-11,78,57,36,46,35,26,82,54,15,30.00,29.93,29.85,,,,9,2,18,0.00,0,,310
2012-10-12,51,49,47,45,44,43,86,81,74,30.28,30.12,29.96,10,10,10,7,1,17,0.00,8,,140
2012-10-13,71,57,43,45,44,41,89,73,40,30.39,30.31,30.25,10,10,9,7,1,13,0.00,4,,50
2012-10-14,71,56,40,49,44,38,89,71,41,30.30,30.23,30.16,10,10,10,7,1,14,0.00,0,,50
2012-10-15,74,62,50,53,48,45,86,65,41,30.19,30.11,30.00,10,10,10,6,0,14,T,5,,-1
2012-10-16,72,57,42,57,47,35,93,67,37,30.21,30.07,29.96,10,10,10,13,4,24,T,4,Rain,322
2012-10-17,66,53,39,36,33,27,79,56,25,30.26,30.21,30.15,10,10,9,10,4,21,0.00,0,,19
2012-10-18,79,57,34,38,31,25,70,46,15,30.22,30.14,30.06,10,10,10,7,0,15,0.00,0,,50
2012-10-19,72,57,41,47,42,37,83,64,37,30.14,30.05,29.96,10,10,10,7,1,18,0.00,2,,65
2012-10-20,64,53,42,44,37,30,86,61,36,29.96,29.92,29.86,10,10,10,12,4,20,0.00,0,,323
2012-10-21,59,45,30,36,28,21,82,55,24,29.96,29.87,29.73,10,10,10,7,2,17,T,3,,290
2012-10-22,49,41,33,37,33,23,92,82,41,29.81,29.70,29.62,10,8,1,8,1,17,0.47,7,Rain,-1
2012-10-23,46,40,34,34,32,30,92,83,62,30.03,29.95,29.81,10,9,2,7,2,16,0.22,7,Rain-Snow,-1
2012-10-24,47,40,32,37,34,30,92,86,70,30.25,30.04,29.90,10,9,1,7,1,15,0.02,8,Rain,60
2012-10-25,51,40,29,33,29,27,92,81,42,30.47,30.32,30.17,10,8,0,6,0,8,0.00,5,Fog,60
2012-10-26,61,45,29,38,33,26,85,63,40,30.42,30.32,30.23,10,10,10,8,1,15,0.00,6,,336
2012-10-27,69,55,40,46,41,36,89,67,44,30.23,30.19,30.13,10,10,10,10,2,20,0.00,2,,313
2012-10-28,71,55,39,48,42,36,92,73,39,30.18,30.12,30.05,10,10,9,5,1,13,0.00,0,,26
2012-10-29,69,53,36,46,41,33,92,72,39,30.23,30.17,30.11,10,10,9,6,0,13,0.00,0,,-1
2012-10-30,65,54,42,46,42,39,92,69,44,30.15,30.08,29.98,10,10,10,8,1,17,0.00,0,,130
2012-10-31,56,51,45,44,43,41,86,79,61,29.98,29.94,29.91,10,9,2,13,4,22,0.40,7,Rain,100